Time;durP1;ratioP1;P1;durP2;ratioP2;P2;SDS_P1;SDS_P2;PMS_P1;PMS_P2;Temp;Humidity;BMP_temperature;BMP_pressure;BME280_temperature;BME280_humidity;BME280_pressure;Samples;Min_cycle;Max_cycle;Signal;HPM_P1;HPM_P2
2024/03/10 04:15:48;;;;;;;9.15;3.25;;;14.80;79.80;;;;;;4975254;28;20109;-69
2024/03/10 04:18:13;;;;;;;11.32;3.10;;;14.90;79.70;;;;;;4978515;28;20061;-80
2024/03/10 04:20:41;;;;;;;11.00;2.88;;;14.90;79.70;;;;;;4980052;28;20047;-79
2024/03/10 04:23:07;;;;;;;13.45;3.20;;;14.90;79.50;;;;;;4980164;28;20066;-81
2024/03/10 04:25:33;;;;;;;11.00;2.95;;;14.90;79.50;;;;;;4979916;28;20518;-80
2024/03/10 04:27:59;;;;;;;11.90;2.80;;;14.90;79.40;;;;;;4980041;28;20487;-81
2024/03/10 04:30:26;;;;;;;12.68;3.03;;;14.80;79.40;;;;;;4980139;28;20046;-81
2024/03/10 04:32:52;;;;;;;11.95;2.83;;;14.80;79.50;;;;;;4980091;28;20502;-81
2024/03/10 04:35:19;;;;;;;11.55;3.08;;;14.80;79.40;;;;;;4980236;28;20070;-80
2024/03/10 04:37:47;;;;;;;10.05;2.65;;;14.80;79.40;;;;;;4980061;28;20061;-82
2024/03/10 04:40:16;;;;;;;10.43;2.47;;;14.80;79.20;;;;;;4979606;28;20104;-80
2024/03/10 04:42:42;;;;;;;11.63;3.58;;;14.90;79.80;;;;;;4979766;28;20034;-80
2024/03/10 04:45:11;;;;;;;8.48;2.20;;;14.90;79.20;;;;;;4979800;28;20035;-81
2024/03/10 04:47:37;;;;;;;12.57;2.65;;;15.00;79.30;;;;;;4979834;28;20038;-81
2024/03/10 04:50:03;;;;;;;10.48;3.08;;;15.00;79.30;;;;;;4962199;28;20146;-82
2024/03/10 04:52:29;;;;;;;18.45;2.83;;;15.00;79.30;;;;;;4979776;28;20502;-80
2024/03/10 04:54:54;;;;;;;11.52;3.20;;;15.20;79.00;;;;;;4979584;28;20065;-81
2024/03/10 04:57:21;;;;;;;20.40;2.75;;;15.20;78.80;;;;;;4979536;28;20027;-81
2024/03/10 04:59:47;;;;;;;12.77;2.65;;;15.30;78.50;;;;;;4979674;28;20047;-80
2024/03/10 05:02:13;;;;;;;13.70;2.60;;;15.50;77.90;;;;;;4979573;28;20358;-81
2024/03/10 05:04:38;;;;;;;11.07;2.85;;;15.60;77.50;;;;;;4979941;28;20467;-81
2024/03/10 05:07:04;;;;;;;9.43;2.40;;;15.70;77.20;;;;;;4979835;28;20042;-80
2024/03/10 05:09:30;;;;;;;13.35;2.80;;;15.80;77.00;;;;;;4979722;28;20043;-80
2024/03/10 05:11:56;;;;;;;13.57;2.55;;;15.90;76.40;;;;;;4977323;28;20038;-79
2024/03/10 05:14:23;;;;;;;10.27;2.10;;;16.10;76.20;;;;;;4976931;28;20046;-80
2024/03/10 05:16:49;;;;;;;9.73;2.33;;;16.10;75.90;;;;;;4976497;28;20047;-80
2024/03/10 05:19:14;;;;;;;10.13;2.25;;;16.10;75.70;;;;;;4976599;28;20513;-81
2024/03/10 05:21:45;;;;;;;9.77;2.00;;;16.10;75.40;;;;;;4976315;28;20542;-77
2024/03/10 05:24:11;;;;;;;14.73;2.83;;;16.10;75.60;;;;;;4976405;28;20109;-80
2024/03/10 05:26:36;;;;;;;12.18;2.67;;;16.20;75.60;;;;;;4976845;28;20122;-80
2024/03/10 05:29:02;;;;;;;14.57;2.85;;;16.20;75.60;;;;;;4976624;28;20446;-81
2024/03/10 05:31:30;;;;;;;8.10;1.90;;;16.20;75.50;;;;;;4959277;28;20035;-81
2024/03/10 05:33:57;;;;;;;10.52;2.42;;;16.20;75.50;;;;;;4976424;28;20042;-81
2024/03/10 05:36:24;;;;;;;12.30;2.50;;;16.20;75.20;;;;;;4976489;28;20040;-80
2024/03/10 05:38:50;;;;;;;11.50;2.42;;;16.20;75.30;;;;;;4958897;28;20074;-80
2024/03/10 05:41:15;;;;;;;12.05;2.47;;;16.20;75.40;;;;;;4976146;28;20070;-80
2024/03/10 05:43:42;;;;;;;16.30;3.08;;;16.20;75.50;;;;;;4976619;28;20034;-80
2024/03/10 05:46:09;;;;;;;11.68;2.63;;;16.30;75.40;;;;;;4976311;28;20039;-81
2024/03/10 05:48:35;;;;;;;9.82;3.00;;;16.40;75.40;;;;;;4976474;28;20039;-81
2024/03/10 05:51:00;;;;;;;12.77;3.60;;;16.30;74.70;;;;;;4976496;28;20098;-82
2024/03/10 05:53:27;;;;;;;11.55;3.08;;;16.30;74.40;;;;;;4975897;28;20114;-81
2024/03/10 05:55:54;;;;;;;10.27;2.60;;;16.40;74.50;;;;;;4975708;28;20082;-80
2024/03/10 05:58:21;;;;;;;11.05;3.30;;;16.40;74.30;;;;;;4975953;28;20047;-81
2024/03/10 06:00:48;;;;;;;15.13;2.50;;;16.50;74.10;;;;;;4975647;28;20086;-80
2024/03/10 06:03:14;;;;;;;15.38;3.60;;;16.60;73.70;;;;;;4975616;28;20118;-81
2024/03/10 06:05:40;;;;;;;11.55;3.17;;;16.60;73.20;;;;;;4976032;28;20066;-81
2024/03/10 06:08:08;;;;;;;15.23;3.40;;;16.60;73.00;;;;;;4976618;28;20459;-80
2024/03/10 06:10:34;;;;;;;12.70;3.08;;;16.60;72.50;;;;;;4957966;28;20082;-81
2024/03/10 06:12:59;;;;;;;14.20;2.83;;;16.60;72.60;;;;;;4975321;28;20070;-80
2024/03/10 06:15:25;;;;;;;9.88;2.22;;;16.70;72.80;;;;;;4975466;28;20130;-80
2024/03/10 06:18:03;;;;;;;9.65;2.35;;;16.80;72.10;;;;;;4974989;28;20051;-82
2024/03/10 06:26:10;;;;;;;11.38;2.45;;;17.00;71.00;;;;;;4922696;28;20032;-81
2024/03/10 06:28:38;;;;;;;13.90;3.22;;;17.00;71.00;;;;;;4958065;28;20039;-82
2024/03/10 06:31:04;;;;;;;11.18;2.67;;;17.10;70.30;;;;;;4974807;28;20038;-81
2024/03/10 06:33:30;;;;;;;12.70;2.95;;;17.10;70.00;;;;;;4974878;28;20495;-81
2024/03/10 06:35:58;;;;;;;13.20;2.83;;;17.10;69.90;;;;;;4974761;28;20054;-80
2024/03/10 06:38:25;;;;;;;12.90;2.38;;;17.20;69.80;;;;;;4975283;28;20392;-80
2024/03/10 06:40:51;;;;;;;14.07;2.67;;;17.20;69.30;;;;;;4975091;28;20042;-82
2024/03/10 06:43:16;;;;;;;15.48;2.78;;;17.20;69.30;;;;;;4975038;28;20130;-81
2024/03/10 06:45:42;;;;;;;18.90;2.80;;;17.30;68.90;;;;;;4974586;28;20050;-79
2024/03/10 06:48:10;;;;;;;9.80;2.50;;;17.30;69.20;;;;;;4974624;28;20374;-81
2024/03/10 06:50:37;;;;;;;12.93;2.97;;;17.30;68.80;;;;;;4975229;28;20043;-80
2024/03/10 06:53:03;;;;;;;15.65;2.97;;;17.30;69.00;;;;;;4975302;28;20049;-81
2024/03/10 06:55:29;;;;;;;12.68;2.92;;;17.40;68.80;;;;;;4974611;28;20487;-80
2024/03/10 06:57:54;;;;;;;19.08;3.45;;;17.40;68.60;;;;;;4974637;28;20508;-80
2024/03/10 07:00:24;;;;;;;12.52;3.03;;;17.40;68.90;;;;;;4974566;28;20486;-80
2024/03/10 07:02:50;;;;;;;15.20;3.22;;;17.40;69.00;;;;;;4974867;28;20061;-81
2024/03/10 07:05:16;;;;;;;13.07;2.92;;;17.40;69.20;;;;;;4974359;28;20448;-82
2024/03/10 07:07:41;;;;;;;17.08;3.40;;;17.40;69.40;;;;;;4974519;28;20030;-82
2024/03/10 07:10:10;;;;;;;13.27;2.95;;;17.40;69.40;;;;;;4974316;28;20035;-75
2024/03/10 07:12:36;;;;;;;11.77;3.00;;;17.40;69.60;;;;;;4973898;28;20078;-76
2024/03/10 07:15:02;;;;;;;17.45;3.60;;;17.30;68.90;;;;;;4974239;28;20049;-77
2024/03/10 07:17:28;;;;;;;16.30;3.90;;;17.30;69.00;;;;;;4974146;28;20495;-75
2024/03/10 07:19:53;;;;;;;14.95;3.67;;;17.20;68.90;;;;;;4973948;28;20027;-71
2024/03/10 07:22:19;;;;;;;17.50;3.35;;;17.20;69.10;;;;;;4973878;28;20042;-71
2024/03/10 07:24:44;;;;;;;17.50;3.33;;;17.20;69.20;;;;;;4973866;28;20035;-71
2024/03/10 07:27:10;;;;;;;20.25;3.70;;;17.20;69.10;;;;;;4973793;28;20398;-71
2024/03/10 07:29:37;;;;;;;14.82;3.47;;;17.20;69.00;;;;;;4973764;28;20038;-76
2024/03/10 07:32:04;;;;;;;18.98;4.13;;;17.30;69.30;;;;;;4973791;28;20121;-71
2024/03/10 07:34:31;;;;;;;15.55;3.25;;;17.30;69.40;;;;;;4972795;28;20039;-71
2024/03/10 07:36:57;;;;;;;16.10;3.25;;;17.30;69.30;;;;;;4973218;28;20517;-71
2024/03/10 07:39:23;;;;;;;15.75;3.58;;;17.30;69.00;;;;;;4973276;28;20081;-72
2024/03/10 07:41:48;;;;;;;19.60;3.30;;;17.30;68.80;;;;;;4956014;28;20039;-71
2024/03/10 07:44:15;;;;;;;15.65;3.38;;;17.40;68.80;;;;;;4955945;28;20432;-72
2024/03/10 07:46:41;;;;;;;15.05;3.33;;;17.40;68.80;;;;;;4973127;28;20503;-71
2024/03/10 07:49:07;;;;;;;18.45;3.63;;;17.50;68.90;;;;;;4972885;28;20033;-70
2024/03/10 07:51:33;;;;;;;14.73;3.78;;;17.50;68.70;;;;;;4972943;28;20035;-71
2024/03/10 07:54:00;;;;;;;16.73;3.90;;;17.50;68.60;;;;;;4972707;28;20066;-72
2024/03/10 07:56:26;;;;;;;14.13;3.42;;;17.60;68.70;;;;;;4972945;28;20038;-72
2024/03/10 07:58:52;;;;;;;12.07;3.13;;;17.60;68.50;;;;;;4942827;28;20042;-71
2024/03/10 08:01:18;;;;;;;20.40;3.55;;;17.70;68.40;;;;;;4982899;28;20165;-71
2024/03/10 08:03:43;;;;;;;16.40;3.53;;;17.70;68.10;;;;;;4972280;28;20133;-72
2024/03/10 08:06:10;;;;;;;19.25;3.58;;;17.80;68.00;;;;;;4992498;28;20401;-76
2024/03/10 08:08:36;;;;;;;16.73;3.95;;;17.80;67.70;;;;;;4992903;28;20027;-76
2024/03/10 08:11:03;;;;;;;15.18;3.13;;;17.90;67.80;;;;;;4993080;28;20125;-72
2024/03/10 08:13:30;;;;;;;20.77;3.95;;;18.00;68.00;;;;;;4975066;28;20026;-77
2024/03/10 08:15:55;;;;;;;22.73;4.10;;;18.00;67.80;;;;;;4946537;28;20510;-75
2024/03/10 08:18:21;;;;;;;19.75;3.88;;;18.00;67.90;;;;;;4956068;28;20045;-75
2024/03/10 08:20:47;;;;;;;21.30;3.60;;;18.00;67.70;;;;;;4961023;28;20570;-71
2024/03/10 08:23:12;;;;;;;18.50;4.07;;;18.10;68.00;;;;;;4955690;28;20034;-72
2024/03/10 08:25:38;;;;;;;19.15;4.15;;;18.10;68.00;;;;;;4973028;28;20410;-73
2024/03/10 08:28:04;;;;;;;19.20;3.95;;;18.10;68.10;;;;;;4973040;28;20035;-73
2024/03/10 08:30:31;;;;;;;22.42;4.35;;;18.10;68.20;;;;;;4973183;28;20043;-73
2024/03/10 08:32:58;;;;;;;27.83;5.20;;;18.10;68.00;;;;;;4973403;28;20062;-79
2024/03/10 08:35:24;;;;;;;22.27;4.68;;;18.20;68.60;;;;;;4972762;28;20137;-79
2024/03/10 08:37:50;;;;;;;22.23;4.47;;;18.30;68.60;;;;;;4973163;28;20039;-79
2024/03/10 08:40:17;;;;;;;21.08;4.47;;;18.40;68.30;;;;;;4972947;28;20173;-79
2024/03/10 08:42:43;;;;;;;19.92;4.55;;;18.40;68.50;;;;;;4972877;28;20031;-79
2024/03/10 08:45:11;;;;;;;22.25;4.90;;;18.50;68.50;;;;;;4973069;28;20043;-80
2024/03/10 08:47:39;;;;;;;20.80;4.75;;;18.50;68.50;;;;;;4976340;28;20036;-79
2024/03/10 08:50:07;;;;;;;24.55;5.85;;;18.60;68.70;;;;;;4976851;28;20449;-81
2024/03/10 08:52:34;;;;;;;24.70;4.80;;;18.60;68.70;;;;;;4976226;28;20041;-80
2024/03/10 08:55:00;;;;;;;20.70;4.82;;;18.70;68.60;;;;;;4976361;28;20042;-79
2024/03/10 08:57:27;;;;;;;20.08;5.00;;;18.70;68.60;;;;;;4976610;28;20538;-80
2024/03/10 08:59:54;;;;;;;24.20;5.60;;;18.70;68.40;;;;;;4976868;28;20435;-80
2024/03/10 09:02:20;;;;;;;19.50;4.47;;;18.80;68.60;;;;;;4976570;28;20049;-79
2024/03/10 09:04:45;;;;;;;21.08;5.13;;;18.80;68.50;;;;;;4976701;28;20061;-80
2024/03/10 09:07:11;;;;;;;19.92;4.95;;;18.80;68.40;;;;;;4976603;28;20027;-80
2024/03/10 09:09:37;;;;;;;21.75;4.75;;;18.80;68.60;;;;;;4976544;28;20030;-80
2024/03/10 09:12:03;;;;;;;23.90;4.90;;;18.80;68.60;;;;;;4976733;28;20042;-80
2024/03/10 09:14:29;;;;;;;25.55;4.72;;;18.90;68.80;;;;;;4976499;28;20124;-82
2024/03/10 09:16:55;;;;;;;25.10;5.25;;;18.90;68.70;;;;;;4976480;28;20133;-80
2024/03/10 09:19:20;;;;;;;21.13;4.97;;;18.90;68.80;;;;;;4976700;28;20039;-82
2024/03/10 09:21:47;;;;;;;23.45;5.00;;;18.90;68.90;;;;;;4977619;28;20076;-82
2024/03/10 09:24:14;;;;;;;24.48;5.65;;;18.90;68.90;;;;;;4976158;28;20467;-79
2024/03/10 09:26:44;;;;;;;20.63;5.05;;;19.00;69.00;;;;;;4976377;28;20139;-79
2024/03/10 09:29:09;;;;;;;26.42;5.53;;;19.00;69.70;;;;;;4976433;28;20027;-80
2024/03/10 09:31:37;;;;;;;23.25;5.20;;;19.00;69.10;;;;;;4976259;28;20034;-80
2024/03/10 09:34:03;;;;;;;27.75;5.35;;;19.10;69.10;;;;;;4976348;28;20070;-80
2024/03/10 09:36:30;;;;;;;20.13;4.60;;;19.10;69.00;;;;;;4976450;28;20047;-81
2024/03/10 09:38:55;;;;;;;30.45;5.07;;;19.10;69.10;;;;;;4976527;28;20035;-78
2024/03/10 09:41:21;;;;;;;20.20;5.05;;;19.20;69.00;;;;;;4977173;28;20050;-80
2024/03/10 09:43:53;;;;;;;23.55;4.53;;;19.20;69.10;;;;;;4976681;28;20027;-82
2024/03/10 09:46:21;;;;;;;22.83;5.10;;;19.20;69.40;;;;;;4976957;28;20057;-79
2024/03/10 09:48:49;;;;;;;21.48;5.32;;;19.20;69.20;;;;;;4976095;28;20439;-81
2024/03/10 09:51:15;;;;;;;23.20;4.97;;;19.20;69.30;;;;;;4975749;28;20035;-79
2024/03/10 09:53:41;;;;;;;27.67;5.80;;;19.20;69.60;;;;;;4975979;28;20478;-80
2024/03/10 09:56:09;;;;;;;22.55;5.35;;;19.20;69.50;;;;;;4975591;28;20090;-80
2024/03/10 09:58:51;;;;;;;23.60;5.60;;;19.20;69.80;;;;;;4975247;28;20062;-79
2024/03/10 10:01:18;;;;;;;25.05;5.68;;;19.20;70.30;;;;;;4976535;28;20117;-80
2024/03/10 10:03:49;;;;;;;21.88;5.75;;;19.20;69.80;;;;;;4958755;28;20518;-80
2024/03/10 10:06:17;;;;;;;22.02;4.85;;;19.30;70.00;;;;;;4976045;28;20041;-76
2024/03/10 10:08:45;;;;;;;21.40;4.80;;;19.30;69.70;;;;;;4975806;28;20074;-80
2024/03/10 10:11:13;;;;;;;27.27;5.15;;;19.40;69.80;;;;;;4974909;28;20096;-80
2024/03/10 10:13:39;;;;;;;24.30;5.55;;;19.40;69.70;;;;;;4975479;28;20399;-79
2024/03/10 10:16:08;;;;;;;25.50;5.00;;;19.40;69.90;;;;;;4975154;28;20138;-80
2024/03/10 10:18:36;;;;;;;23.70;5.10;;;19.40;70.10;;;;;;4975267;28;20019;-78
2024/03/10 10:21:07;;;;;;;21.10;4.47;;;19.30;69.80;;;;;;4975300;28;20400;-80
2024/03/10 10:23:35;;;;;;;20.85;5.68;;;19.30;70.30;;;;;;4957711;28;20118;-78
2024/03/10 10:26:09;;;;;;;20.35;4.90;;;19.20;70.30;;;;;;4974886;28;20043;-79
2024/03/10 10:28:41;;;;;;;23.20;5.22;;;19.20;70.70;;;;;;4975449;28;20542;-80
2024/03/10 10:31:18;;;;;;;21.58;5.63;;;19.10;70.80;;;;;;4974905;28;20149;-77
2024/03/10 10:33:47;;;;;;;26.92;5.63;;;19.10;70.90;;;;;;4957743;28;20392;-78
2024/03/10 10:36:13;;;;;;;29.02;6.03;;;19.00;71.10;;;;;;4975016;28;20051;-80
2024/03/10 10:38:48;;;;;;;22.00;6.00;;;19.00;71.10;;;;;;4975426;28;20045;-77
2024/03/10 10:41:14;;;;;;;25.85;5.22;;;19.00;71.40;;;;;;4975374;28;20375;-81
2024/03/10 10:43:42;;;;;;;28.38;5.55;;;19.00;71.70;;;;;;4975557;28;20042;-78
2024/03/10 10:46:13;;;;;;;27.23;6.57;;;18.90;71.80;;;;;;4974734;28;20035;-79
2024/03/10 10:48:40;;;;;;;27.80;5.97;;;18.90;72.10;;;;;;4974738;28;20045;-78
2024/03/10 10:51:09;;;;;;;29.05;6.47;;;18.80;72.30;;;;;;4974326;28;20027;-79
2024/03/10 10:53:38;;;;;;;23.90;5.88;;;18.80;72.60;;;;;;4974713;28;20105;-79
2024/03/10 10:56:04;;;;;;;25.20;5.50;;;18.70;72.60;;;;;;4974236;28;20513;-78
2024/03/10 10:58:31;;;;;;;30.60;6.00;;;18.70;72.70;;;;;;4957161;28;20055;-78
2024/03/10 11:01:00;;;;;;;30.63;6.22;;;18.70;73.00;;;;;;4974195;28;20042;-78
2024/03/10 11:03:26;;;;;;;28.63;5.70;;;18.70;73.00;;;;;;4974230;28;20138;-79
2024/03/10 11:06:08;;;;;;;27.42;5.43;;;18.80;73.30;;;;;;4974403;28;20505;-79
2024/03/10 11:08:35;;;;;;;26.42;5.75;;;18.80;73.90;;;;;;4974409;28;20031;-79
2024/03/10 11:11:03;;;;;;;19.83;5.28;;;18.80;73.50;;;;;;4974019;28;20035;-80
2024/03/10 11:13:29;;;;;;;30.48;6.50;;;18.80;73.50;;;;;;4974186;28;20118;-80
2024/03/10 11:16:13;;;;;;;28.98;6.82;;;18.80;73.70;;;;;;4973682;28;20079;-80
2024/03/10 11:18:40;;;;;;;26.67;6.28;;;18.80;74.40;;;;;;4974208;28;20507;-79
2024/03/10 11:21:13;;;;;;;23.77;6.18;;;18.80;74.00;;;;;;4973735;28;20038;-77
2024/03/10 11:23:42;;;;;;;28.83;5.88;;;18.70;74.50;;;;;;4973780;28;20043;-79
2024/03/10 11:26:12;;;;;;;27.83;6.70;;;18.70;74.50;;;;;;4974098;28;20027;-77
2024/03/10 11:28:50;;;;;;;30.88;7.25;;;18.70;74.60;;;;;;4973858;28;20045;-79
2024/03/10 11:31:37;;;;;;;26.73;6.00;;;18.70;75.70;;;;;;4973876;28;20038;-80
2024/03/10 11:34:04;;;;;;;32.22;5.93;;;18.70;75.90;;;;;;4973640;28;20035;-79
2024/03/10 11:36:39;;;;;;;33.67;6.65;;;18.70;76.40;;;;;;4973843;28;20553;-79
2024/03/10 11:39:09;;;;;;;25.42;6.50;;;18.60;76.80;;;;;;4973419;28;20035;-78
2024/03/10 11:41:36;;;;;;;30.48;7.13;;;18.60;77.00;;;;;;4956043;28;20062;-78
2024/03/10 11:44:03;;;;;;;31.10;6.80;;;18.60;77.20;;;;;;4973510;28;20057;-78
2024/03/10 11:46:33;;;;;;;33.25;7.13;;;18.60;77.30;;;;;;4973182;28;20038;-78
2024/03/10 11:49:01;;;;;;;29.80;7.05;;;18.60;77.60;;;;;;4973355;28;20042;-78
2024/03/10 11:51:29;;;;;;;26.55;6.18;;;18.60;77.70;;;;;;4973549;28;20069;-79
2024/03/10 11:53:55;;;;;;;24.33;6.55;;;18.60;78.10;;;;;;4973606;28;20431;-79
2024/03/10 11:56:22;;;;;;;29.27;7.15;;;18.60;78.20;;;;;;4973548;28;20117;-78
2024/03/10 11:58:49;;;;;;;30.05;7.45;;;18.60;78.40;;;;;;4973531;28;20121;-79
2024/03/10 12:01:16;;;;;;;34.25;8.13;;;18.60;78.50;;;;;;4973659;28;20039;-77
2024/03/10 12:03:47;;;;;;;33.50;6.97;;;18.60;78.70;;;;;;4956020;28;20125;-79
2024/03/10 12:06:14;;;;;;;28.77;6.40;;;18.50;78.90;;;;;;4973128;28;20038;-78
2024/03/10 12:08:44;;;;;;;30.15;7.22;;;18.50;78.90;;;;;;4973502;28;20031;-78
2024/03/10 12:11:11;;;;;;;32.58;7.15;;;18.50;79.00;;;;;;4973438;28;20070;-78
2024/03/10 12:13:41;;;;;;;31.65;7.10;;;18.50;79.10;;;;;;4973467;28;20035;-77
2024/03/10 12:16:07;;;;;;;31.98;7.43;;;18.60;79.40;;;;;;4973070;28;20038;-79
2024/03/10 12:18:38;;;;;;;33.10;7.72;;;18.60;79.70;;;;;;4973126;28;20440;-79
2024/03/10 12:21:06;;;;;;;31.63;7.30;;;18.60;80.00;;;;;;4974024;28;20049;-78
2024/03/10 12:23:36;;;;;;;29.85;7.75;;;18.70;80.10;;;;;;4977170;28;20039;-78
2024/03/10 12:26:09;;;;;;;28.23;7.40;;;18.90;79.80;;;;;;4977684;28;20491;-79
2024/03/10 12:28:39;;;;;;;32.28;7.57;;;19.10;79.40;;;;;;4977395;28;20027;-80
2024/03/10 12:31:15;;;;;;;38.65;8.60;;;19.20;79.20;;;;;;4976856;28;20089;-78
2024/03/10 12:33:46;;;;;;;31.73;8.43;;;19.30;79.40;;;;;;4977233;28;20038;-79
2024/03/10 12:36:12;;;;;;;41.58;8.45;;;19.30;79.60;;;;;;4978961;28;20054;-79
2024/03/10 12:38:39;;;;;;;33.38;7.85;;;19.30;79.60;;;;;;4977315;28;20129;-78
2024/03/10 12:41:20;;;;;;;41.17;8.55;;;19.30;79.70;;;;;;4976964;28;20042;-78
2024/03/10 12:43:46;;;;;;;38.55;8.23;;;19.20;79.80;;;;;;4977575;28;20035;-80
2024/03/10 12:46:18;;;;;;;37.15;9.98;;;19.10;79.90;;;;;;4977334;28;20035;-79
2024/03/10 12:48:48;;;;;;;45.53;9.52;;;19.00;80.10;;;;;;4977191;28;20503;-79
2024/03/10 12:51:14;;;;;;;34.55;8.40;;;18.90;80.50;;;;;;4977112;28;20027;-77
2024/03/10 12:53:40;;;;;;;38.30;8.38;;;18.80;80.70;;;;;;4976759;28;20089;-77
2024/03/10 12:56:09;;;;;;;39.42;8.63;;;18.80;81.00;;;;;;4976543;28;20043;-78
2024/03/10 12:58:36;;;;;;;41.50;10.02;;;18.80;81.20;;;;;;4960151;28;20126;-77
2024/03/10 13:01:02;;;;;;;39.40;8.85;;;18.70;81.30;;;;;;4959381;28;20042;-78
2024/03/10 13:03:28;;;;;;;38.95;9.13;;;18.70;81.10;;;;;;4978193;28;20035;-78
2024/03/10 13:05:55;;;;;;;38.78;9.18;;;18.70;81.30;;;;;;4978498;28;20448;-78
2024/03/10 13:08:23;;;;;;;43.55;9.23;;;18.70;81.60;;;;;;4977037;28;20046;-81
2024/03/10 13:10:49;;;;;;;39.78;9.45;;;18.70;81.90;;;;;;4976682;28;20513;-77
2024/03/10 13:13:14;;;;;;;43.28;8.77;;;18.70;82.20;;;;;;4975487;28;20113;-78
2024/03/10 13:15:41;;;;;;;41.17;8.90;;;18.70;82.80;;;;;;4976625;28;20081;-89
2024/03/10 13:18:08;;;;;;;44.13;9.15;;;18.70;83.40;;;;;;4976447;28;20055;-85
2024/03/10 13:20:35;;;;;;;49.20;9.77;;;18.60;83.50;;;;;;4976479;28;20038;-84
2024/03/10 13:23:01;;;;;;;42.65;9.23;;;18.50;83.90;;;;;;4976181;28;20054;-77
2024/03/10 13:25:27;;;;;;;43.80;10.20;;;18.40;84.50;;;;;;4976392;28;20047;-87
2024/03/10 13:27:53;;;;;;;48.55;9.82;;;18.30;84.60;;;;;;4976691;28;20069;-76
2024/03/10 13:30:18;;;;;;;46.15;9.68;;;18.30;85.20;;;;;;4976971;28;20093;-82
2024/03/10 13:32:44;;;;;;;51.92;11.25;;;18.20;85.40;;;;;;4975248;28;20443;-79
2024/03/10 13:35:12;;;;;;;43.28;10.45;;;18.10;86.30;;;;;;4974614;28;20043;-75
2024/03/10 13:37:38;;;;;;;39.28;9.32;;;18.00;86.90;;;;;;4976808;28;20037;-79
2024/03/10 13:40:10;;;;;;;46.08;9.80;;;17.90;87.50;;;;;;4976664;28;20111;-86
2024/03/10 13:44:44;;;;;;;40.55;9.20;;;17.80;90.00;;;;;;5126823;27;20206;-78
2024/03/10 13:47:09;;;;;;;39.38;9.13;;;17.70;89.00;;;;;;5110934;28;20425;-80
2024/03/10 13:49:35;;;;;;;39.50;8.88;;;17.70;89.10;;;;;;5110347;28;20015;-77
2024/03/10 13:52:01;;;;;;;42.45;12.45;;;17.70;89.90;;;;;;5111841;28;20024;-82
2024/03/10 13:54:27;;;;;;;30.70;8.45;;;17.70;90.00;;;;;;5110814;28;20016;-79
2024/03/10 13:56:52;;;;;;;36.75;8.10;;;17.70;90.20;;;;;;5108901;28;20032;-76
2024/03/10 13:59:18;;;;;;;32.35;9.25;;;17.70;90.50;;;;;;5110394;28;20023;-75
2024/03/10 14:01:44;;;;;;;34.10;9.00;;;17.60;90.20;;;;;;5110477;28;20391;-83
2024/03/10 14:04:11;;;;;;;35.58;8.15;;;17.60;90.70;;;;;;5109383;28;20040;-76
2024/03/10 14:06:37;;;;;;;37.33;8.95;;;17.50;90.80;;;;;;5109157;28;20020;-86
2024/03/10 14:09:03;;;;;;;33.63;7.82;;;17.40;91.20;;;;;;5109739;28;20024;-80
2024/03/10 14:11:31;;;;;;;32.50;8.27;;;17.50;91.50;;;;;;5109174;28;20077;-87
2024/03/10 14:13:57;;;;;;;37.63;8.13;;;17.60;91.50;;;;;;5110440;28;20471;-85
2024/03/10 14:16:22;;;;;;;33.53;9.13;;;17.70;91.30;;;;;;5112587;28;20012;-79
2024/03/10 14:18:49;;;;;;;39.47;9.90;;;17.80;91.30;;;;;;5110521;28;20047;-81
2024/03/10 14:21:15;;;;;;;38.60;8.75;;;17.80;91.10;;;;;;5110059;28;20047;-82
2024/03/10 14:23:40;;;;;;;35.75;8.63;;;17.80;91.00;;;;;;5110251;28;20044;-81
2024/03/10 14:26:06;;;;;;;47.60;8.90;;;17.90;91.20;;;;;;5110391;28;20023;-83
2024/03/10 14:28:36;;;;;;;41.05;9.80;;;17.90;91.10;;;;;;5110304;28;20438;-86
2024/03/10 14:31:03;;;;;;;40.22;9.80;;;17.90;91.20;;;;;;5110284;28;20028;-83
2024/03/10 14:33:33;;;;;;;45.25;10.05;;;17.90;91.20;;;;;;5109771;28;20092;-81
2024/03/10 14:36:00;;;;;;;35.78;9.25;;;17.90;91.30;;;;;;5110561;28;20380;-86
2024/03/10 14:38:25;;;;;;;41.72;8.77;;;17.90;91.30;;;;;;5109938;28;20030;-82
2024/03/10 14:40:51;;;;;;;40.22;8.90;;;17.90;91.40;;;;;;5110150;28;20024;-82
2024/03/10 14:43:17;;;;;;;36.10;8.77;;;17.90;91.30;;;;;;5109371;28;20092;-74
2024/03/10 14:45:45;;;;;;;42.30;9.25;;;17.90;91.40;;;;;;5109586;28;20438;-76
2024/03/10 14:48:11;;;;;;;39.00;9.68;;;17.90;91.40;;;;;;5109600;28;20051;-82
2024/03/10 14:50:37;;;;;;;51.47;10.40;;;18.00;91.30;;;;;;5109368;28;20047;-81
2024/03/10 14:53:05;;;;;;;45.40;10.70;;;17.90;91.30;;;;;;5108230;28;20495;-76
2024/03/10 14:55:31;;;;;;;39.65;9.73;;;17.80;91.40;;;;;;5097675;28;20081;-77
2024/03/10 14:58:00;;;;;;;35.95;9.60;;;17.70;91.50;;;;;;5094776;28;20048;-75
2024/03/10 15:00:32;;;;;;;58.33;12.82;;;17.60;91.70;;;;;;5093743;28;20028;-76
2024/03/10 15:03:05;;;;;;;48.40;9.52;;;17.50;92.00;;;;;;5094878;28;20024;-73
2024/03/10 15:05:31;;;;;;;58.95;12.23;;;17.40;92.00;;;;;;5092638;28;20089;-70
2024/03/10 15:07:57;;;;;;;46.03;11.95;;;17.40;92.30;;;;;;5094931;28;20080;-74
2024/03/10 15:10:26;;;;;;;48.88;11.35;;;17.40;92.30;;;;;;5094543;28;20376;-75
2024/03/10 15:12:54;;;;;;;57.60;12.05;;;17.30;92.40;;;;;;5095017;28;20027;-74
2024/03/10 15:15:21;;;;;;;51.25;11.13;;;17.30;92.50;;;;;;5094690;28;20352;-73
2024/03/10 15:17:46;;;;;;;48.40;11.07;;;17.30;92.50;;;;;;5094533;28;20031;-70
2024/03/10 15:20:13;;;;;;;45.92;10.07;;;17.30;92.70;;;;;;5095117;28;20025;-72
2024/03/10 15:22:40;;;;;;;49.65;11.57;;;17.30;92.80;;;;;;5094490;28;20064;-72
2024/03/10 15:25:14;;;;;;;55.60;12.05;;;17.30;92.90;;;;;;5094412;28;20024;-72
2024/03/10 15:27:40;;;;;;;61.13;13.52;;;17.30;92.80;;;;;;5093560;28;20459;-73
2024/03/10 15:30:10;;;;;;;60.95;13.55;;;17.30;93.10;;;;;;5094305;28;20059;-73
2024/03/10 15:32:36;;;;;;;62.88;12.90;;;17.30;93.20;;;;;;5092764;28;20375;-72
2024/03/10 15:35:02;;;;;;;67.15;14.43;;;17.20;93.30;;;;;;5093778;28;20024;-72
2024/03/10 15:37:28;;;;;;;85.00;14.50;;;17.20;93.40;;;;;;5093705;28;20423;-72
2024/03/10 15:39:54;;;;;;;79.10;15.35;;;17.20;93.50;;;;;;5094400;28;20063;-72
2024/03/10 15:42:20;;;;;;;73.28;15.48;;;17.10;93.60;;;;;;5094304;28;20487;-74
2024/03/10 15:44:48;;;;;;;78.10;15.98;;;17.10;93.70;;;;;;5094128;28;20379;-72
2024/03/10 15:47:14;;;;;;;72.72;14.98;;;17.00;93.60;;;;;;5094477;28;20032;-72
2024/03/10 15:49:40;;;;;;;66.88;12.93;;;17.00;93.80;;;;;;5094572;28;20182;-72
2024/03/10 15:52:05;;;;;;;41.75;8.90;;;16.90;93.90;;;;;;5094255;28;20028;-72
2024/03/10 15:54:32;;;;;;;37.10;6.47;;;16.80;93.80;;;;;;5094145;28;20048;-72
2024/03/10 15:57:01;;;;;;;18.58;4.28;;;16.70;93.50;;;;;;5094302;28;20020;-72
2024/03/10 15:59:27;;;;;;;21.52;5.03;;;16.60;93.30;;;;;;5092867;28;20035;-72
2024/03/10 16:01:56;;;;;;;22.85;5.63;;;16.50;92.60;;;;;;5094087;28;20016;-73
2024/03/10 16:04:23;;;;;;;19.02;6.13;;;16.40;92.30;;;;;;5092773;28;20040;-72
2024/03/10 16:06:53;;;;;;;13.48;2.90;;;16.40;92.30;;;;;;5093097;28;20021;-72
2024/03/10 16:09:21;;;;;;;15.20;4.43;;;16.30;92.10;;;;;;5094034;28;20036;-72
2024/03/10 16:11:49;;;;;;;13.88;3.60;;;16.30;91.90;;;;;;5094013;28;20032;-72
2024/03/10 16:14:18;;;;;;;15.00;2.90;;;16.20;92.00;;;;;;5094063;28;20046;-73
2024/03/10 16:16:45;;;;;;;10.55;2.55;;;16.20;92.00;;;;;;5094160;28;20039;-72
2024/03/10 16:19:13;;;;;;;12.32;3.15;;;16.20;92.00;;;;;;5093742;28;20051;-72
2024/03/10 16:21:40;;;;;;;13.55;3.65;;;16.20;91.90;;;;;;5093951;28;20429;-72
2024/03/10 16:24:13;;;;;;;12.80;3.40;;;16.10;91.80;;;;;;5093409;28;20040;-71
2024/03/10 16:26:42;;;;;;;21.55;7.70;;;16.10;91.70;;;;;;5093820;28;20034;-69
2024/03/10 16:29:08;;;;;;;11.88;3.10;;;16.10;91.90;;;;;;5093432;28;20128;-70
2024/03/10 16:31:35;;;;;;;14.63;3.35;;;16.10;92.00;;;;;;5093649;28;20028;-73
2024/03/10 16:34:05;;;;;;;13.63;3.08;;;16.10;91.90;;;;;;5093180;28;20051;-71
2024/03/10 16:36:32;;;;;;;14.65;3.22;;;16.00;91.80;;;;;;5093306;28;20102;-76
2024/03/10 16:38:59;;;;;;;17.48;9.40;;;16.00;91.90;;;;;;5093024;28;20028;-73
2024/03/10 16:41:25;;;;;;;13.20;4.93;;;16.00;91.80;;;;;;5093273;28;20464;-71
2024/03/10 16:43:51;;;;;;;10.45;3.10;;;16.00;91.90;;;;;;5092654;28;20116;-73
2024/03/10 16:46:18;;;;;;;13.02;3.15;;;16.00;91.80;;;;;;5093499;28;20097;-82
2024/03/10 16:48:45;;;;;;;14.38;2.88;;;16.00;91.80;;;;;;5093129;28;20031;-71
2024/03/10 16:51:11;;;;;;;10.15;2.50;;;16.00;91.80;;;;;;5092545;28;20024;-71
2024/03/10 16:53:36;;;;;;;12.40;2.47;;;15.90;91.80;;;;;;5092445;28;20369;-71
2024/03/10 16:56:03;;;;;;;16.20;3.78;;;15.90;91.80;;;;;;5092427;28;20097;-70
2024/03/10 16:58:29;;;;;;;14.45;2.65;;;15.80;91.70;;;;;;5092553;28;20498;-71